Time;durP1;ratioP1;P1;durP2;ratioP2;P2;SDS_P1;SDS_P2;PMS_P1;PMS_P2;Temp;Humidity;BMP_temperature;BMP_pressure;BME280_temperature;BME280_humidity;BME280_pressure;Samples;Min_cycle;Max_cycle;Signal;HPM_P1;HPM_P2
2023/10/20 00:01:29;;;;;;;16.30;11.20;;;;;;;;;;4919828;29;20495;-79
2023/10/20 00:03:55;;;;;;;16.05;11.15;;;;;;;;;;4917285;29;20039;-79
2023/10/20 00:06:21;;;;;;;18.08;10.60;;;;;;;;;;4917973;29;20179;-79
2023/10/20 00:08:47;;;;;;;16.23;10.40;;;;;;;;;;4917800;29;20047;-79
2023/10/20 00:11:13;;;;;;;14.95;10.40;;;;;;;;;;4887310;29;20036;-79
2023/10/20 00:13:40;;;;;;;17.85;10.93;;;;;;;;;;4902283;29;20039;-79
2023/10/20 00:16:06;;;;;;;15.57;10.30;;;;;;;;;;4903014;29;20388;-79
2023/10/20 00:18:32;;;;;;;14.90;10.38;;;;;;;;;;4918222;29;20043;-79
2023/10/20 00:20:58;;;;;;;15.13;9.90;;;;;;;;;;4918485;29;20550;-79
2023/10/20 00:23:24;;;;;;;14.80;9.48;;;;;;;;;;4918425;29;20114;-79
2023/10/20 00:25:51;;;;;;;14.80;9.73;;;;;;;;;;4898453;29;20051;-79
2023/10/20 00:28:17;;;;;;;14.55;9.70;;;;;;;;;;4902977;29;20130;-79
2023/10/20 00:30:43;;;;;;;14.30;9.70;;;;;;;;;;4918471;29;20086;-79
2023/10/20 00:33:09;;;;;;;14.18;9.63;;;;;;;;;;4902473;29;20051;-79
2023/10/20 00:35:35;;;;;;;14.82;9.75;;;;;;;;;;4918389;29;20040;-79
2023/10/20 00:38:02;;;;;;;15.30;9.98;;;;;;;;;;4918209;29;20097;-78
2023/10/20 00:40:28;;;;;;;14.50;9.32;;;;;;;;;;4918003;29;20082;-79
2023/10/20 00:42:54;;;;;;;13.43;9.70;;;;;;;;;;4917905;29;20039;-79
2023/10/20 00:45:20;;;;;;;14.52;10.30;;;;;;;;;;4902093;29;20031;-79
2023/10/20 00:47:46;;;;;;;17.38;10.40;;;;;;;;;;4918128;29;20039;-79
2023/10/20 00:50:15;;;;;;;13.20;9.52;;;;;;;;;;4902665;29;20499;-80
2023/10/20 00:52:48;;;;;;;16.17;9.95;;;;;;;;;;4902079;29;20500;-80
2023/10/20 00:55:14;;;;;;;13.73;9.32;;;8.80;99.90;;;;;;4918060;29;20086;-80
2023/10/20 00:57:41;;;;;;;14.60;9.27;;;;;;;;;;4901304;29;20040;-79
2023/10/20 01:00:09;;;;;;;13.80;9.63;;;;;;;;;;4902175;29;20028;-79
2023/10/20 01:02:36;;;;;;;12.85;9.70;;;;;;;;;;4917712;29;20063;-79
2023/10/20 01:05:05;;;;;;;13.65;9.38;;;;;;;;;;4917815;29;20066;-80
2023/10/20 01:07:32;;;;;;;15.88;8.85;;;;;;;;;;4917666;29;20046;-79
2023/10/20 01:10:05;;;;;;;13.48;9.10;;;;;;;;;;4903192;29;20059;-79
2023/10/20 01:12:31;;;;;;;15.27;9.80;;;;;;;;;;4916371;29;20039;-79
2023/10/20 01:15:01;;;;;;;14.50;9.93;;;;;;;;;;4902075;29;20070;-79
2023/10/20 01:17:27;;;;;;;17.35;10.05;;;;;;;;;;4917609;29;20051;-79
2023/10/20 01:19:54;;;;;;;15.60;9.85;;;;;;;;;;4917434;29;20071;-79
2023/10/20 01:22:20;;;;;;;15.35;9.52;;;;;;;;;;4920809;29;20046;-79
2023/10/20 01:24:46;;;;;;;17.67;9.52;;;;;;;;;;4890303;29;20152;-79
2023/10/20 01:27:12;;;;;;;16.60;9.50;;;;;;;;;;4921354;29;20072;-79
2023/10/20 01:29:38;;;;;;;14.77;9.48;;;;;;;;;;4920915;29;20039;-79
2023/10/20 01:32:04;;;;;;;15.43;10.23;;;;;;;;;;4920740;29;20530;-79
2023/10/20 01:34:31;;;;;;;13.63;9.35;;;;;;;;;;4905385;29;20117;-79
2023/10/20 01:36:57;;;;;;;15.38;9.40;;;;;;;;;;4902812;29;20100;-79
2023/10/20 01:39:23;;;;;;;17.90;9.40;;;;;;;;;;4904936;29;20038;-79
2023/10/20 01:41:49;;;;;;;13.35;8.88;;;;;;;;;;4920972;29;20047;-79
2023/10/20 01:44:15;;;;;;;13.50;9.30;;;;;;;;;;4903862;29;20044;-80
2023/10/20 01:46:49;;;;;;;19.70;10.15;;;;;;;;;;4920983;29;20462;-79
2023/10/20 01:49:15;;;;;;;15.55;9.43;;;;;;;;;;4920808;29;20095;-79
2023/10/20 01:51:41;;;;;;;15.38;8.98;;;;;;;;;;4920601;29;20035;-79
2023/10/20 01:54:07;;;;;;;15.23;9.25;;;;;;;;;;4920375;29;20044;-79
2023/10/20 01:56:33;;;;;;;14.95;9.32;;;;;;;;;;4918157;29;20039;-79
2023/10/20 01:58:59;;;;;;;17.23;9.88;;;;;;;;;;4920948;29;20433;-79
2023/10/20 02:01:26;;;;;;;14.77;8.63;;;;;;;;;;4904612;29;20476;-80
2023/10/20 02:03:53;;;;;;;18.70;10.35;;;;;;;;;;4920917;29;20054;-79
2023/10/20 02:06:19;;;;;;;15.02;9.25;;;;;;;;;;4900209;29;20040;-79
2023/10/20 02:08:45;;;;;;;17.33;9.32;;;;;;;;;;4920400;29;20123;-79
2023/10/20 02:11:11;;;;;;;17.13;10.15;;;;;;;;;;4889786;29;20036;-80
2023/10/20 02:13:38;;;;;;;15.93;9.73;;;;;;;;;;4880879;29;20039;-80
2023/10/20 02:16:07;;;;;;;22.58;10.60;;;8.50;99.90;;;;;;4904683;29;20040;-80
2023/10/20 02:18:33;;;;;;;18.45;10.10;;;;;;;;;;4920581;29;20130;-80
2023/10/20 02:21:03;;;;;;;16.33;10.25;;;8.50;99.90;;;;;;4920531;29;20055;-80
2023/10/20 02:23:35;;;;;;;18.50;11.20;;;8.70;99.90;;;;;;4898340;29;20114;-80
2023/10/20 02:26:06;;;;;;;19.85;11.30;;;8.70;99.90;;;;;;4904478;29;20040;-79
2023/10/20 02:28:32;;;;;;;19.08;10.93;;;;;;;;;;4902661;29;20447;-80
2023/10/20 02:31:00;;;;;;;18.20;11.07;;;8.40;99.90;;;;;;4920341;29;20044;-80
2023/10/20 02:33:26;;;;;;;19.77;11.52;;;;;;;;;;4918426;29;20441;-80
2023/10/20 02:35:54;;;;;;;20.52;10.80;;;8.60;99.90;;;;;;4920295;29;20043;-80
2023/10/20 02:38:20;;;;;;;20.65;11.57;;;;;;;;;;4911479;29;20039;-79
2023/10/20 02:40:53;;;;;;;20.08;11.75;;;8.50;99.90;;;;;;4920424;29;20126;-80
2023/10/20 02:43:20;;;;;;;21.52;12.07;;;;;;;;;;4888529;29;20047;-80
2023/10/20 02:45:53;;;;;;;21.90;11.65;;;;;;;;;;4904602;29;20392;-80
2023/10/20 02:48:23;;;;;;;17.83;11.25;;;8.40;99.90;;;;;;4920126;29;20384;-80
2023/10/20 02:50:49;;;;;;;19.60;11.30;;;;;;;;;;4920457;29;20051;-80
2023/10/20 02:53:15;;;;;;;21.90;11.85;;;;;;;;;;4919723;29;20039;-80
2023/10/20 02:55:42;;;;;;;19.92;11.25;;;;;;;;;;4920066;29;20043;-79
2023/10/20 02:58:11;;;;;;;19.92;11.68;;;;;;;;;;4885677;29;20058;-79
2023/10/20 03:00:44;;;;;;;21.67;11.52;;;;;;;;;;4922607;29;20031;-80
2023/10/20 03:03:11;;;;;;;24.38;12.73;;;;;;;;;;4904543;29;20044;-80
2023/10/20 03:05:38;;;;;;;19.88;12.65;;;;;;;;;;4903725;29;20039;-79
2023/10/20 03:08:04;;;;;;;20.27;12.13;;;;;;;;;;4904162;29;20047;-80
2023/10/20 03:10:30;;;;;;;21.67;11.70;;;;;;;;;;4903604;29;20392;-80
2023/10/20 03:12:56;;;;;;;20.02;11.77;;;;;;;;;;4919542;29;20054;-79
2023/10/20 03:15:23;;;;;;;19.00;11.20;;;;;;;;;;4903380;29;20122;-80
2023/10/20 03:17:49;;;;;;;20.45;12.50;;;;;;;;;;4903500;29;20102;-80
2023/10/20 03:20:17;;;;;;;20.58;11.75;;;;;;;;;;4919040;29;20503;-80
2023/10/20 03:22:43;;;;;;;20.23;11.98;;;;;;;;;;4901417;29;20090;-80
2023/10/20 03:25:10;;;;;;;19.35;12.30;;;;;;;;;;4919271;29;20377;-80
2023/10/20 03:27:39;;;;;;;20.67;12.43;;;;;;;;;;4903591;29;20094;-80
2023/10/20 03:30:05;;;;;;;21.80;11.55;;;;;;;;;;4919342;29;20092;-80
2023/10/20 03:32:32;;;;;;;17.73;11.50;;;;;;;;;;4919043;29;20051;-80
2023/10/20 03:34:58;;;;;;;22.40;11.75;;;;;;;;;;4874578;29;20040;-79
2023/10/20 03:37:24;;;;;;;24.77;11.95;;;;;;;;;;4888071;29;20079;-80
2023/10/20 03:39:51;;;;;;;23.10;11.38;;;;;;;;;;4919387;29;20083;-80
2023/10/20 03:42:17;;;;;;;18.48;12.23;;;;;;;;;;4903521;29;20483;-80
2023/10/20 03:44:43;;;;;;;20.60;12.80;;;;;;;;;;4903136;29;20114;-79
2023/10/20 03:47:10;;;;;;;20.70;12.50;;;;;;;;;;4918834;29;20055;-80
2023/10/20 03:49:36;;;;;;;24.42;13.23;;;;;;;;;;4919070;29;20036;-80
2023/10/20 03:52:03;;;;;;;21.23;13.15;;;8.70;99.90;;;;;;4887787;29;20484;-80
2023/10/20 03:54:32;;;;;;;20.90;13.15;;;;;;;;;;4908617;29;20383;-80
2023/10/20 03:56:58;;;;;;;19.42;12.25;;;;;;;;;;4901623;29;20046;-80
2023/10/20 03:59:24;;;;;;;21.42;12.02;;;;;;;;;;4904381;29;20036;-79
2023/10/20 04:01:53;;;;;;;22.35;13.50;;;;;;;;;;4919007;29;20412;-79
2023/10/20 04:04:20;;;;;;;20.67;12.50;;;;;;;;;;4918551;29;20035;-79
2023/10/20 04:06:46;;;;;;;21.83;13.27;;;;;;;;;;4918649;29;20142;-79
2023/10/20 04:09:12;;;;;;;21.15;13.13;;;;;;;;;;4884567;29;20415;-79
2023/10/20 04:11:38;;;;;;;19.50;11.98;;;;;;;;;;4918128;29;20377;-79
2023/10/20 04:14:07;;;;;;;19.63;11.90;;;;;;;;;;4902427;29;20123;-79
2023/10/20 04:16:39;;;;;;;21.67;12.48;;;;;;;;;;4918388;29;20036;-79
2023/10/20 04:19:09;;;;;;;20.13;12.15;;;;;;;;;;4918736;29;20036;-78
2023/10/20 04:21:44;;;;;;;23.20;12.63;;;;;;;;;;4918797;29;20444;-79
2023/10/20 04:24:11;;;;;;;25.38;13.43;;;;;;;;;;4918315;29;20062;-78
2023/10/20 04:26:44;;;;;;;23.38;14.45;;;;;;;;;;4901411;29;20061;-79
2023/10/20 05:01:25;;;;;;;19.15;10.82;;;;;;;;;;4917046;29;20050;-79
2023/10/20 05:04:11;;;;;;;15.73;10.05;;;;;;;;;;4918015;29;20070;-79
2023/10/20 05:06:43;;;;;;;18.45;10.40;;;;;;;;;;4917559;29;20079;-80
2023/10/20 05:09:13;;;;;;;13.98;9.27;;;;;;;;;;4902765;29;20044;-79
2023/10/20 05:11:39;;;;;;;15.23;9.73;;;;;;;;;;4902018;29;20035;-79
2023/10/20 05:14:05;;;;;;;10.93;8.32;;;;;;;;;;4917495;29;20115;-77
2023/10/20 05:16:33;;;;;;;14.30;8.73;;;;;;;;;;4885950;29;20035;-77
2023/10/20 05:19:03;;;;;;;11.98;8.90;;;;;;;;;;4917475;29;20085;-77
2023/10/20 05:21:29;;;;;;;12.40;8.82;;;;;;;;;;4917622;29;20035;-78
2023/10/20 05:23:55;;;;;;;13.18;8.85;;;;;;;;;;4917437;29;20066;-77
2023/10/20 05:26:23;;;;;;;12.93;8.82;;;;;;;;;;4917404;29;20039;-77
2023/10/20 05:28:50;;;;;;;13.63;10.02;;;;;;;;;;4879728;29;20047;-79
2023/10/20 05:31:16;;;;;;;15.18;8.60;;;;;;;;;;4886452;29;20079;-80
2023/10/20 05:33:42;;;;;;;13.55;9.02;;;;;;;;;;4892592;29;20083;-80
2023/10/20 05:36:09;;;;;;;12.35;8.43;;;;;;;;;;4900548;29;20048;-79
2023/10/20 05:38:35;;;;;;;12.35;8.98;;;;;;;;;;4901937;29;20071;-79
2023/10/20 05:41:01;;;;;;;13.85;8.40;;;;;;;;;;4917583;29;20055;-79
2023/10/20 05:43:29;;;;;;;14.07;8.35;;;;;;;;;;4918011;29;20047;-80
2023/10/20 05:45:55;;;;;;;10.82;7.90;;;;;;;;;;4902308;29;20114;-79
2023/10/20 05:48:21;;;;;;;13.00;8.00;;;;;;;;;;4902294;29;20035;-79
2023/10/20 05:50:47;;;;;;;10.95;7.72;;;;;;;;;;4875377;29;20665;-80
2023/10/20 05:53:14;;;;;;;12.30;7.85;;;;;;;;;;4892019;29;20060;-79
2023/10/20 05:55:40;;;;;;;10.73;7.65;;;;;;;;;;4918995;29;20039;-79
2023/10/20 05:58:06;;;;;;;10.98;7.43;;;;;;;;;;4918269;29;20032;-79
2023/10/20 06:00:33;;;;;;;12.68;7.40;;;;;;;;;;4904186;29;20758;-79
2023/10/20 06:02:59;;;;;;;11.35;7.82;;;;;;;;;;4900526;29;20046;-79
2023/10/20 06:05:26;;;;;;;10.45;7.25;;;;;;;;;;4918394;29;20079;-79
2023/10/20 06:07:52;;;;;;;10.38;7.18;;;;;;;;;;4920343;29;20051;-79
2023/10/20 06:10:24;;;;;;;11.10;7.05;;;;;;;;;;4905090;29;20044;-79
2023/10/20 06:12:51;;;;;;;12.95;7.07;;;;;;;;;;4903003;29;20048;-79
2023/10/20 06:15:17;;;;;;;10.90;6.80;;;;;;;;;;4905138;29;20483;-79
2023/10/20 06:17:44;;;;;;;9.93;6.88;;;;;;;;;;4905954;29;20409;-79
2023/10/20 06:20:10;;;;;;;9.93;6.72;;;;;;;;;;4907545;29;20058;-79
2023/10/20 06:22:36;;;;;;;10.13;6.63;;;;;;;;;;4906295;29;20473;-79
2023/10/20 06:25:10;;;;;;;11.15;6.75;;;;;;;;;;4908189;29;20182;-78
2023/10/20 06:27:36;;;;;;;10.10;6.20;;;;;;;;;;4903349;29;20114;-78
2023/10/20 06:30:14;;;;;;;9.68;6.22;;;;;;;;;;4906551;29;20044;-77
2023/10/20 06:32:51;;;;;;;10.43;6.13;;;8.30;99.90;;;;;;4920654;29;20056;-77
2023/10/20 06:35:18;;;;;;;10.48;6.22;;;;;;;;;;4917990;29;20484;-77
2023/10/20 06:40:15;;;;;;;8.27;5.53;;;;;;;;;;4920287;29;20046;-76
2023/10/20 06:42:41;;;;;;;8.52;5.30;;;;;;;;;;4920183;29;20044;-77
2023/10/20 06:45:08;;;;;;;11.55;5.32;;;;;;;;;;4920497;29;20047;-77
2023/10/20 06:47:34;;;;;;;9.07;4.90;;;;;;;;;;4919806;29;20055;-77
2023/10/20 06:50:00;;;;;;;8.13;5.32;;;;;;;;;;4904599;29;20040;-77
2023/10/20 06:52:27;;;;;;;8.32;4.57;;;;;;;;;;4902891;29;20052;-77
2023/10/20 06:54:56;;;;;;;8.68;4.95;;;;;;;;;;4919636;29;20094;-76
2023/10/20 06:57:23;;;;;;;7.32;4.07;;;8.30;99.90;;;;;;4888566;29;20040;-78
2023/10/20 06:59:50;;;;;;;9.93;4.35;;;;;;;;;;4919491;29;20050;-77
2023/10/20 07:02:16;;;;;;;6.55;3.75;;;;;;;;;;4919288;29;20051;-77
2023/10/20 07:04:42;;;;;;;7.30;3.90;;;;;;;;;;4904141;29;20054;-77
2023/10/20 07:07:13;;;;;;;6.75;4.30;;;;;;;;;;4905425;29;20508;-77
2023/10/20 07:09:44;;;;;;;6.68;3.80;;;;;;;;;;4903856;29;20039;-77
2023/10/20 07:12:10;;;;;;;5.95;3.60;;;;;;;;;;4919403;29;20047;-77
2023/10/20 07:14:38;;;;;;;6.80;3.40;;;;;;;;;;4891150;29;20123;-77
2023/10/20 07:17:06;;;;;;;7.00;4.22;;;;;;;;;;4904097;29;20075;-77
2023/10/20 07:19:35;;;;;;;4.70;3.13;;;;;;;;;;4918739;29;20035;-77
2023/10/20 07:22:05;;;;;;;6.10;3.55;;;;;;;;;;4919493;29;20425;-77
2023/10/20 07:24:31;;;;;;;6.82;3.35;;;;;;;;;;4919037;29;20106;-79
2023/10/20 07:26:58;;;;;;;5.10;3.40;;;;;;;;;;4903393;29;20035;-79
2023/10/20 07:29:24;;;;;;;8.13;4.15;;;;;;;;;;4921110;29;20047;-80
2023/10/20 07:31:51;;;;;;;5.00;3.45;;;;;;;;;;4903178;29;20066;-80
2023/10/20 07:34:17;;;;;;;5.40;3.58;;;;;;;;;;4919154;29;20051;-78
2023/10/20 07:36:45;;;;;;;5.85;3.40;;;8.20;99.90;;;;;;4920298;29;20052;-77
2023/10/20 07:39:16;;;;;;;6.90;3.63;;;;;;;;;;4919472;29;20103;-79
2023/10/20 07:41:43;;;;;;;7.43;3.70;;;;;;;;;;4918781;29;20542;-78
2023/10/20 07:44:09;;;;;;;6.78;3.63;;;;;;;;;;4918900;29;20126;-77
2023/10/20 07:46:35;;;;;;;10.95;3.60;;;;;;;;;;4918979;29;20463;-77
2023/10/20 07:49:01;;;;;;;9.32;4.05;;;;;;;;;;4918683;29;20584;-78
2023/10/20 07:51:28;;;;;;;5.38;3.33;;;;;;;;;;4903453;29;20047;-77
2023/10/20 07:53:54;;;;;;;5.07;3.25;;;;;;;;;;4908975;29;20044;-77
2023/10/20 07:56:20;;;;;;;4.90;3.60;;;;;;;;;;4897566;29;20032;-77
2023/10/20 07:58:46;;;;;;;5.13;3.10;;;;;;;;;;4920006;29;20040;-78
2023/10/20 08:01:12;;;;;;;5.55;3.08;;;;;;;;;;4919454;29;20094;-78
2023/10/20 08:03:42;;;;;;;5.70;3.45;;;;;;;;;;4919755;29;20536;-77
2023/10/20 08:06:08;;;;;;;5.75;3.10;;;;;;;;;;4921395;29;20054;-79
2023/10/20 08:08:34;;;;;;;5.80;3.50;;;;;;;;;;4931327;29;20122;-79
2023/10/20 08:11:03;;;;;;;5.47;2.88;;;8.40;99.90;;;;;;4890978;29;20547;-79
2023/10/20 08:13:29;;;;;;;4.13;2.90;;;;;;;;;;4926728;29;20079;-78
2023/10/20 08:15:55;;;;;;;6.60;3.10;;;;;;;;;;4913257;29;20091;-78
2023/10/20 08:18:21;;;;;;;4.07;2.75;;;;;;;;;;4923218;29;20063;-78
2023/10/20 08:20:47;;;;;;;4.68;2.63;;;;;;;;;;4898230;29;20044;-78
2023/10/20 08:23:13;;;;;;;4.70;2.65;;;;;;;;;;4928022;29;20036;-78
2023/10/20 08:25:40;;;;;;;4.80;2.92;;;;;;;;;;4926493;29;20039;-78
2023/10/20 08:28:07;;;;;;;6.63;2.83;;;;;;;;;;4912421;29;20408;-78
2023/10/20 08:30:33;;;;;;;3.72;2.72;;;;;;;;;;4925890;29;20460;-77
2023/10/20 08:32:59;;;;;;;3.85;2.88;;;;;;;;;;4926465;29;20126;-77
2023/10/20 08:35:26;;;;;;;6.03;2.90;;;;;;;;;;4929499;29;20098;-77
2023/10/20 08:37:52;;;;;;;3.35;2.55;;;;;;;;;;4929154;29;20142;-76
2023/10/20 08:40:18;;;;;;;4.55;2.80;;;;;;;;;;4927137;29;20065;-76
2023/10/20 08:42:44;;;;;;;4.85;2.40;;;;;;;;;;4928152;29;20047;-76
2023/10/20 08:45:15;;;;;;;5.57;2.60;;;;;;;;;;4925338;29;20050;-77
2023/10/20 08:47:42;;;;;;;4.55;2.70;;;;;;;;;;4920382;29;20055;-77
2023/10/20 08:50:09;;;;;;;3.47;2.50;;;;;;;;;;4912117;29;20047;-79
2023/10/20 08:52:36;;;;;;;4.78;2.90;;;;;;;;;;4925079;29;20055;-76
2023/10/20 08:55:04;;;;;;;4.32;3.03;;;;;;;;;;4915512;29;20043;-76
2023/10/20 08:57:30;;;;;;;3.20;2.35;;;;;;;;;;4920805;29;20395;-76
2023/10/20 08:59:56;;;;;;;3.20;2.58;;;;;;;;;;4916822;29;20122;-76
2023/10/20 09:02:22;;;;;;;3.20;2.50;;;;;;;;;;4919109;29;20079;-76
2023/10/20 09:04:51;;;;;;;4.63;2.80;;;;;;;;;;4918886;29;20051;-76
2023/10/20 09:07:17;;;;;;;4.35;2.63;;;;;;;;;;4918596;29;20496;-77
2023/10/20 09:09:44;;;;;;;5.40;2.40;;;;;;;;;;4902384;29;20102;-77
2023/10/20 09:12:11;;;;;;;3.08;2.60;;;;;;;;;;4918404;29;20384;-77
2023/10/20 09:14:41;;;;;;;3.30;2.30;;;8.00;99.90;;;;;;4908741;29;20042;-76
2023/10/20 09:17:08;;;;;;;3.08;2.13;;;;;;;;;;4919084;29;20039;-76
2023/10/20 09:19:35;;;;;;;4.22;2.10;;;;;;;;;;4918905;29;20051;-77
2023/10/20 09:22:01;;;;;;;2.90;2.10;;;;;;;;;;4918471;29;20051;-76
2023/10/20 09:24:31;;;;;;;2.75;1.90;;;7.90;99.90;;;;;;4910218;29;20207;-77
2023/10/20 09:26:57;;;;;;;2.70;2.08;;;;;;;;;;4891122;29;20091;-77
2023/10/20 09:29:23;;;;;;;2.50;2.10;;;;;;;;;;4918119;29;20086;-76
2023/10/20 09:31:50;;;;;;;3.08;2.10;;;;;;;;;;4918185;29;20044;-76
2023/10/20 09:34:16;;;;;;;2.70;1.88;;;;;;;;;;4918263;29;20526;-76
2023/10/20 09:36:47;;;;;;;2.10;1.70;;;;;;;;;;4918438;29;20044;-76
2023/10/20 09:39:21;;;;;;;2.25;1.65;;;7.90;99.90;;;;;;4908062;29;20044;-76
2023/10/20 09:41:50;;;;;;;2.40;1.73;;;7.90;99.90;;;;;;4919007;29;20054;-76
2023/10/20 09:44:38;;;;;;;3.40;2.33;;;8.00;99.90;;;;;;4908870;29;20043;-76
2023/10/20 09:47:19;;;;;;;2.20;1.83;;;7.90;99.90;;;;;;4922095;29;20504;-76
2023/10/20 09:49:45;;;;;;;3.53;2.00;;;;;;;;;;4921926;29;20086;-76
2023/10/20 09:52:12;;;;;;;2.60;2.08;;;;;;;;;;4921990;29;20043;-76
2023/10/20 09:54:38;;;;;;;2.15;1.80;;;;;;;;;;4921755;29;20492;-77
2023/10/20 09:57:08;;;;;;;2.38;1.98;;;7.90;99.90;;;;;;4921680;29;20075;-76
2023/10/20 09:59:34;;;;;;;3.17;1.75;;;;;;;;;;4906056;29;20044;-77
2023/10/20 10:02:00;;;;;;;2.83;1.60;;;;;;;;;;4922000;29;20452;-78
2023/10/20 10:04:36;;;;;;;1.67;1.33;;;7.70;99.90;;;;;;4921700;29;20102;-77
2023/10/20 10:07:07;;;;;;;1.63;1.50;;;;;;;;;;4921593;29;20051;-77
2023/10/20 10:09:37;;;;;;;1.92;1.40;;;8.00;99.90;;;;;;4905738;29;20092;-77
2023/10/20 10:12:07;;;;;;;2.08;1.50;;;;;;;;;;4905931;29;20040;-77
2023/10/20 10:14:34;;;;;;;1.83;1.40;;;;;;;;;;4927150;29;20493;-77
2023/10/20 10:17:01;;;;;;;2.00;1.52;;;;;;;;;;4922702;29;20039;-77
2023/10/20 10:19:28;;;;;;;2.55;1.55;;;;;;;;;;4916739;29;20140;-77
2023/10/20 10:22:01;;;;;;;2.90;1.67;;;8.00;99.90;;;;;;4905818;29;20065;-77
2023/10/20 10:24:31;;;;;;;3.92;1.50;;;7.80;99.90;;;;;;4921551;29;20039;-77
2023/10/20 10:26:59;;;;;;;1.75;1.50;;;;;;;;;;4905613;29;20044;-77
2023/10/20 10:29:44;;;;;;;1.55;1.40;;;;;;;;;;4921139;29;20039;-77
2023/10/20 10:32:12;;;;;;;1.55;1.35;;;7.80;99.90;;;;;;4915676;29;20138;-77
2023/10/20 10:34:45;;;;;;;1.48;1.23;;;;;;;;;;4921132;29;20502;-77
2023/10/20 10:37:12;;;;;;;1.65;1.40;;;;;;;;;;4921183;29;20504;-77
2023/10/20 10:39:38;;;;;;;2.83;1.50;;;;;;;;;;4920773;29;20130;-77
2023/10/20 10:42:05;;;;;;;1.40;1.30;;;;;;;;;;4921323;29;20146;-77
2023/10/20 10:44:33;;;;;;;2.35;1.60;;;7.70;99.90;;;;;;4926933;29;20551;-77
2023/10/20 10:47:00;;;;;;;1.90;1.40;;;;;;;;;;4921015;29;20078;-77
2023/10/20 10:49:26;;;;;;;2.75;1.65;;;;;;;;;;4920787;29;20496;-77
2023/10/20 10:51:52;;;;;;;1.58;1.25;;;;;;;;;;4920915;29;20169;-77
2023/10/20 10:54:18;;;;;;;2.80;1.58;;;;;;;;;;4919428;29;20042;-77
2023/10/20 10:56:45;;;;;;;2.53;1.17;;;;;;;;;;4920719;29;20040;-77
2023/10/20 10:59:12;;;;;;;1.63;1.20;;;;;;;;;;4932630;29;20047;-77
2023/10/20 11:01:41;;;;;;;3.30;1.08;;;;;;;;;;4920732;29;20480;-77
2023/10/20 11:04:09;;;;;;;2.42;1.38;;;;;;;;;;4920659;29;20082;-77
2023/10/20 11:06:37;;;;;;;2.15;1.13;;;;;;;;;;4920705;29;20047;-78
2023/10/20 11:09:10;;;;;;;1.40;1.30;;;7.60;99.90;;;;;;4920709;29;20083;-78
2023/10/20 11:11:36;;;;;;;;;;;;;;;;;;4921054;29;20123;-78
2023/10/20 11:14:02;;;;;;;1.80;1.30;;;;;;;;;;4927465;29;20007;-79
2023/10/20 11:16:28;;;;;;;1.80;1.30;;;;;;;;;;4904715;29;20039;-78
2023/10/20 11:18:54;;;;;;;3.33;1.20;;;;;;;;;;4920273;29;20043;-78
2023/10/20 11:21:21;;;;;;;1.45;1.30;;;;;;;;;;4920564;29;20075;-79
2023/10/20 11:23:50;;;;;;;1.48;1.30;;;;;;;;;;4920616;29;20046;-79
2023/10/20 11:26:20;;;;;;;1.38;1.17;;;;;;;;;;4920334;29;20074;-81
2023/10/20 11:28:47;;;;;;;1.73;1.50;;;;;;;;;;4905201;29;20190;-82
2023/10/20 11:31:13;;;;;;;1.23;1.00;;;;;;;;;;4904557;29;20044;-82
2023/10/20 11:33:39;;;;;;;1.83;1.20;;;;;;;;;;4920221;29;20052;-82
2023/10/20 11:36:06;;;;;;;1.15;1.05;;;;;;;;;;4920828;29;20048;-81
2023/10/20 11:38:32;;;;;;;1.10;1.00;;;;;;;;;;4913949;29;20043;-81
2023/10/20 11:41:00;;;;;;;1.10;1.00;;;;;;;;;;4889466;29;20043;-82
2023/10/20 11:43:27;;;;;;;1.13;1.02;;;;;;;;;;4921996;29;20039;-82
2023/10/20 11:45:53;;;;;;;2.05;1.17;;;;;;;;;;4878840;29;20036;-83
2023/10/20 11:48:20;;;;;;;1.00;1.00;;;;;;;;;;4889716;29;20457;-83
2023/10/20 11:50:46;;;;;;;0.90;0.90;;;;;;;;;;4880134;29;20080;-82
2023/10/20 11:53:12;;;;;;;2.25;0.82;;;;;;;;;;4898374;29;20043;-82
2023/10/20 11:55:39;;;;;;;1.67;1.02;;;;;;;;;;4888506;29;20036;-82
2023/10/20 11:58:05;;;;;;;1.45;1.10;;;;;;;;;;4912721;29;20036;-83
2023/10/20 12:00:32;;;;;;;2.00;1.10;;;;;;;;;;4907048;29;20075;-82
2023/10/20 12:02:58;;;;;;;2.10;1.10;;;;;;;;;;4911750;29;20507;-82
2023/10/20 12:05:24;;;;;;;1.20;1.10;;;;;;;;;;4894312;29;20036;-83
2023/10/20 12:07:52;;;;;;;0.98;0.98;;;;;;;;;;4897037;29;20063;-82
2023/10/20 12:10:18;;;;;;;2.25;1.30;;;;;;;;;;4912636;29;20115;-82
2023/10/20 12:12:44;;;;;;;2.47;1.05;;;;;;;;;;4919619;29;20046;-82
2023/10/20 12:15:11;;;;;;;1.33;1.20;;;;;;;;;;4898353;29;20114;-83
2023/10/20 12:17:40;;;;;;;1.80;1.10;;;;;;;;;;4918175;29;20090;-82
2023/10/20 12:20:08;;;;;;;1.40;1.10;;;;;;;;;;4896458;29;20043;-82
2023/10/20 12:22:34;;;;;;;1.00;0.98;;;;;;;;;;4904373;29;20039;-82
2023/10/20 12:25:00;;;;;;;1.20;1.10;;;;;;;;;;4901917;29;20044;-83
2023/10/20 12:27:26;;;;;;;1.00;1.00;;;;;;;;;;4898616;29;20135;-83
2023/10/20 12:29:52;;;;;;;0.88;0.88;;;;;;;;;;4884881;29;20048;-82
2023/10/20 12:32:19;;;;;;;1.13;1.02;;;;;;;;;;4930627;29;20059;-82
2023/10/20 12:34:45;;;;;;;1.60;1.00;;;;;;;;;;4919159;29;20170;-83
2023/10/20 12:37:11;;;;;;;1.52;0.90;;;;;;;;;;4918792;29;20083;-82
2023/10/20 12:39:39;;;;;;;0.90;0.90;;;;;;;;;;4918887;29;20044;-82
2023/10/20 12:42:05;;;;;;;1.45;0.90;;;;;;;;;;4918638;29;20075;-82
2023/10/20 12:44:33;;;;;;;1.17;0.90;;;;;;;;;;4903343;29;20046;-82
2023/10/20 12:47:00;;;;;;;1.40;1.10;;;;;;;;;;4935908;29;20102;-82
2023/10/20 12:49:26;;;;;;;1.10;1.00;;;;;;;;;;4900260;29;20080;-82
2023/10/20 12:51:52;;;;;;;0.98;0.90;;;;;;;;;;4918772;29;20103;-82
2023/10/20 12:54:18;;;;;;;1.55;0.93;;;;;;;;;;4904171;29;20387;-82
2023/10/20 12:56:44;;;;;;;1.13;1.02;;;;;;;;;;4887815;29;20091;-81
2023/10/20 12:59:10;;;;;;;0.90;0.90;;;;;;;;;;4902990;29;20476;-82
2023/10/20 13:01:36;;;;;;;1.10;1.00;;;;;;;;;;4887177;29;20043;-82
2023/10/20 13:04:02;;;;;;;0.90;0.90;;;;;;;;;;4903029;29;20043;-82
2023/10/20 13:06:29;;;;;;;2.15;0.90;;;;;;;;;;4935679;29;20059;-82
2023/10/20 13:08:55;;;;;;;1.45;1.25;;;;;;;;;;4919096;29;20117;-82
2023/10/20 13:11:21;;;;;;;0.95;0.95;;;;;;;;;;4902972;29;20056;-81
2023/10/20 13:13:48;;;;;;;1.23;0.90;;;;;;;;;;4918324;29;20051;-81
2023/10/20 13:16:14;;;;;;;0.90;0.90;;;;;;;;;;4902422;29;20403;-81
2023/10/20 13:18:40;;;;;;;1.75;1.10;;;;;;;;;;4887538;29;20058;-83
2023/10/20 13:21:06;;;;;;;1.70;1.10;;;;;;;;;;4902670;29;20031;-82
2023/10/20 13:23:33;;;;;;;2.00;0.93;;;;;;;;;;4918557;29;20523;-82
2023/10/20 13:26:00;;;;;;;1.38;0.88;;;;;;;;;;4902679;29;20095;-82
2023/10/20 13:28:26;;;;;;;0.88;0.88;;;;;;;;;;4902847;29;20043;-81
2023/10/20 13:30:59;;;;;;;0.95;0.85;;;;;;;;;;4902480;29;20047;-82
2023/10/20 13:33:25;;;;;;;0.80;0.80;;;;;;;;;;4922813;29;20137;-82
2023/10/20 13:35:51;;;;;;;1.35;1.00;;;;;;;;;;4899178;29;20071;-81
2023/10/20 13:38:18;;;;;;;0.90;0.90;;;;;;;;;;4904408;29;20424;-82
2023/10/20 13:40:44;;;;;;;1.05;0.95;;;;;;;;;;4917838;29;20051;-82
2023/10/20 13:43:10;;;;;;;2.15;0.90;;;;;;;;;;4902317;29;20130;-82
2023/10/20 13:45:37;;;;;;;0.80;0.80;;;;;;;;;;4903157;29;20456;-81
2023/10/20 13:48:03;;;;;;;1.55;1.00;;;;;;;;;;4915032;29;20122;-82
2023/10/20 13:50:30;;;;;;;1.17;0.90;;;;;;;;;;4921706;29;20051;-82
2023/10/20 13:52:56;;;;;;;0.73;0.73;;;;;;;;;;4904279;29;20869;-82
2023/10/20 13:55:22;;;;;;;0.70;0.70;;;;;;;;;;4906700;29;20047;-82
2023/10/20 13:57:49;;;;;;;1.00;1.00;;;;;;;;;;4899034;29;20503;-82
2023/10/20 14:00:16;;;;;;;0.98;0.98;;;;;;;;;;4899563;29;20044;-82
2023/10/20 14:02:42;;;;;;;1.05;0.90;;;;;;;;;;4918181;29;20396;-82
2023/10/20 14:05:08;;;;;;;1.60;1.23;;;;;;;;;;4910092;29;20051;-83
2023/10/20 14:07:34;;;;;;;0.80;0.80;;;;;;;;;;4911030;29;20048;-83
2023/10/20 14:10:00;;;;;;;1.00;0.90;;;;;;;;;;4902842;29;20057;-82
2023/10/20 14:12:35;;;;;;;0.80;0.80;;;;;;;;;;4908108;29;20040;-82
2023/10/20 14:15:02;;;;;;;0.73;0.73;;;;;;;;;;4929713;29;20043;-82
2023/10/20 14:17:28;;;;;;;0.95;0.85;;;;;;;;;;4921065;29;20074;-83
2023/10/20 14:19:54;;;;;;;3.50;0.95;;;;;;;;;;4928635;29;20055;-83
2023/10/20 14:22:33;;;;;;;;;;;;;;;;;;;;;
2023/10/20 14:24:59;;;;;;;1.20;0.98;;;;;;;;;;4922504;29;20055;-82
2023/10/20 14:27:25;;;;;;;0.82;0.82;;;;;;;;;;4886419;29;20040;-82
2023/10/20 14:29:51;;;;;;;0.82;0.80;;;;;;;;;;4905470;29;20047;-82
2023/10/20 14:32:18;;;;;;;1.67;0.90;;;;;;;;;;4904950;29;20115;-82
2023/10/20 14:34:44;;;;;;;0.80;0.80;;;;;;;;;;4920934;29;20099;-82
2023/10/20 14:37:10;;;;;;;1.42;1.08;;;;;;;;;;4921080;29;20036;-82
2023/10/20 14:39:39;;;;;;;1.45;0.85;;;;;;;;;;4905094;29;20042;-82
2023/10/20 14:42:05;;;;;;;0.88;0.88;;;;;;;;;;4879876;29;20040;-84
2023/10/20 14:44:32;;;;;;;0.88;0.88;;;;;;;;;;4909029;29;20087;-82
2023/10/20 14:46:58;;;;;;;1.05;0.90;;;;;;;;;;4921101;29;20043;-81
2023/10/20 14:49:24;;;;;;;0.90;0.80;;;;;;;;;;4905460;29;20047;-81
2023/10/20 14:51:50;;;;;;;0.80;0.80;;;;;;;;;;4920107;29;20429;-81
2023/10/20 14:54:16;;;;;;;0.90;0.90;;;;;;;;;;4920872;29;20083;-81
2023/10/20 14:56:42;;;;;;;1.35;0.90;;;;;;;;;;4937805;29;20480;-81
2023/10/20 14:59:10;;;;;;;0.80;0.80;;;;;;;;;;4904660;29;20175;-81
2023/10/20 15:01:36;;;;;;;0.73;0.73;;;;;;;;;;4904814;29;20107;-82